sensor_id;sensor_type;location;lat;lon;timestamp;pressure;altitude;pressure_sealevel;temperature;humidity
19114;BME280;9689;51.052;13.772;2022-11-15T00:00:19;100407.75;;;6.95;87.15
19114;BME280;9689;51.052;13.772;2022-11-15T00:05:38;100413.81;;;6.90;87.94
19114;BME280;9689;51.052;13.772;2022-11-15T00:11:01;100408.59;;;6.93;87.35
19114;BME280;9689;51.052;13.772;2022-11-15T00:16:20;100393.06;;;6.93;87.39
19114;BME280;9689;51.052;13.772;2022-11-15T00:21:40;100393.94;;;6.90;87.75
19114;BME280;9689;51.052;13.772;2022-11-15T00:27:00;100389.63;;;6.91;87.15
19114;BME280;9689;51.052;13.772;2022-11-15T00:32:24;100390.53;;;6.80;87.56
19114;BME280;9689;51.052;13.772;2022-11-15T00:37:43;100386.16;;;6.86;88.14
19114;BME280;9689;51.052;13.772;2022-11-15T00:43:05;100387.91;;;6.84;87.52
19114;BME280;9689;51.052;13.772;2022-11-15T00:48:25;100387.03;;;6.86;88.30
19114;BME280;9689;51.052;13.772;2022-11-15T00:53:44;100388.78;;;6.83;88.18
19114;BME280;9689;51.052;13.772;2022-11-15T00:59:04;100387.03;;;6.85;87.51
19114;BME280;9689;51.052;13.772;2022-11-15T01:04:24;100380.13;;;6.90;87.89
19114;BME280;9689;51.052;13.772;2022-11-15T01:09:43;100373.25;;;6.81;87.65
19114;BME280;9689;51.052;13.772;2022-11-15T01:15:04;100364.63;;;6.76;88.14
19114;BME280;9689;51.052;13.772;2022-11-15T01:20:24;100357.72;;;6.73;88.08
19114;BME280;9689;51.052;13.772;2022-11-15T01:25:44;100368.09;;;6.79;88.37
19114;BME280;9689;51.052;13.772;2022-11-15T01:31:06;100361.16;;;6.82;87.85
19114;BME280;9689;51.052;13.772;2022-11-15T01:36:25;100355.16;;;6.78;87.83
19114;BME280;9689;51.052;13.772;2022-11-15T01:41:44;100343.00;;;6.86;88.07
19114;BME280;9689;51.052;13.772;2022-11-15T01:47:08;100339.53;;;6.86;87.94
19114;BME280;9689;51.052;13.772;2022-11-15T01:52:30;100340.41;;;6.91;88.51
19114;BME280;9689;51.052;13.772;2022-11-15T01:57:51;100335.22;;;6.91;88.09
19114;BME280;9689;51.052;13.772;2022-11-15T02:03:13;100322.19;;;7.06;87.52
19114;BME280;9689;51.052;13.772;2022-11-15T02:08:33;100317.03;;;7.01;88.11
19114;BME280;9689;51.052;13.772;2022-11-15T02:13:52;100308.41;;;6.99;88.10
19114;BME280;9689;51.052;13.772;2022-11-15T02:19:28;100311.81;;;7.03;87.80
19114;BME280;9689;51.052;13.772;2022-11-15T02:25:02;100304.91;;;7.03;87.08
19114;BME280;9689;51.052;13.772;2022-11-15T02:30:29;100309.31;;;6.95;87.67
19114;BME280;9689;51.052;13.772;2022-11-15T02:35:58;100303.22;;;6.95;87.33
19114;BME280;9689;51.052;13.772;2022-11-15T02:41:23;100299.81;;;6.91;88.10
19114;BME280;9689;51.052;13.772;2022-11-15T02:46:49;100286.00;;;6.86;88.14
19114;BME280;9689;51.052;13.772;2022-11-15T02:52:28;100274.00;;;6.79;88.11
19114;BME280;9689;51.052;13.772;2022-11-15T02:57:52;100274.81;;;6.84;87.55
19114;BME280;9689;51.052;13.772;2022-11-15T03:03:24;100267.88;;;6.89;88.21
19114;BME280;9689;51.052;13.772;2022-11-15T03:08:55;100264.44;;;6.84;87.48
19114;BME280;9689;51.052;13.772;2022-11-15T03:14:21;100260.22;;;6.69;88.01
19114;BME280;9689;51.052;13.772;2022-11-15T03:19:46;100261.94;;;6.69;88.69
19114;BME280;9689;51.052;13.772;2022-11-15T03:25:09;100256.78;;;6.63;88.11
19114;BME280;9689;51.052;13.772;2022-11-15T03:30:31;100249.88;;;6.65;88.67
19114;BME280;9689;51.052;13.772;2022-11-15T03:35:54;100242.09;;;6.65;88.41
19114;BME280;9689;51.052;13.772;2022-11-15T03:41:17;100243.81;;;6.69;88.06
19114;BME280;9689;51.052;13.772;2022-11-15T03:46:46;100247.28;;;6.69;88.05
19114;BME280;9689;51.052;13.772;2022-11-15T03:52:09;100241.28;;;6.57;88.14
19114;BME280;9689;51.052;13.772;2022-11-15T03:57:29;100243.84;;;6.64;88.10
19114;BME280;9689;51.052;13.772;2022-11-15T04:02:49;100235.19;;;6.71;87.85
19114;BME280;9689;51.052;13.772;2022-11-15T04:08:09;100226.59;;;6.60;88.86
19114;BME280;9689;51.052;13.772;2022-11-15T04:13:28;100223.19;;;6.54;88.83
19114;BME280;9689;51.052;13.772;2022-11-15T04:18:48;100223.19;;;6.55;88.75
19114;BME280;9689;51.052;13.772;2022-11-15T04:24:29;100230.91;;;6.60;88.96
19114;BME280;9689;51.052;13.772;2022-11-15T04:29:48;100222.31;;;6.53;88.60
19114;BME280;9689;51.052;13.772;2022-11-15T04:35:08;100217.09;;;6.58;88.39
19114;BME280;9689;51.052;13.772;2022-11-15T04:40:29;100213.69;;;6.54;89.14
19114;BME280;9689;51.052;13.772;2022-11-15T04:45:48;100213.63;;;6.60;88.82
19114;BME280;9689;51.052;13.772;2022-11-15T04:51:07;100210.19;;;6.58;88.31
19114;BME280;9689;51.052;13.772;2022-11-15T04:56:28;100211.94;;;6.61;88.12
19114;BME280;9689;51.052;13.772;2022-11-15T05:01:47;100206.75;;;6.61;88.02
19114;BME280;9689;51.052;13.772;2022-11-15T05:07:06;100206.72;;;6.65;87.75
19114;BME280;9689;51.052;13.772;2022-11-15T05:12:27;100199.00;;;6.56;87.55
19114;BME280;9689;51.052;13.772;2022-11-15T05:17:46;100188.59;;;6.64;88.05
19114;BME280;9689;51.052;13.772;2022-11-15T05:23:05;100201.56;;;6.58;87.48
19114;BME280;9689;51.052;13.772;2022-11-15T05:28:26;100195.59;;;6.48;88.08
19114;BME280;9689;51.052;13.772;2022-11-15T05:33:46;100191.25;;;6.53;88.62
19114;BME280;9689;51.052;13.772;2022-11-15T05:39:06;100192.09;;;6.55;88.46
19114;BME280;9689;51.052;13.772;2022-11-15T05:44:28;100190.34;;;6.60;88.90
19114;BME280;9689;51.052;13.772;2022-11-15T05:49:48;100191.94;;;6.81;87.77
19114;BME280;9689;51.052;13.772;2022-11-15T05:55:08;100195.31;;;6.97;87.04
19114;BME280;9689;51.052;13.772;2022-11-15T06:00:29;100196.13;;;7.00;86.27
19114;BME280;9689;51.052;13.772;2022-11-15T06:05:48;100188.38;;;6.99;86.90
19114;BME280;9689;51.052;13.772;2022-11-15T06:11:08;100191.78;;;7.02;86.82
19114;BME280;9689;51.052;13.772;2022-11-15T06:16:28;100187.59;;;6.88;86.52
19114;BME280;9689;51.052;13.772;2022-11-15T06:21:47;100189.28;;;6.92;86.29
19114;BME280;9689;51.052;13.772;2022-11-15T06:27:07;100191.84;;;6.93;86.53
19114;BME280;9689;51.052;13.772;2022-11-15T06:32:28;100203.16;;;6.82;86.99
19114;BME280;9689;51.052;13.772;2022-11-15T06:37:47;100202.34;;;6.78;87.13
19114;BME280;9689;51.052;13.772;2022-11-15T06:43:07;100209.25;;;6.74;86.93
19114;BME280;9689;51.052;13.772;2022-11-15T06:48:28;100210.06;;;6.83;86.80
19114;BME280;9689;51.052;13.772;2022-11-15T06:53:47;100212.63;;;6.86;86.19
19114;BME280;9689;51.052;13.772;2022-11-15T06:59:07;100204.00;;;6.85;86.68
19114;BME280;9689;51.052;13.772;2022-11-15T07:04:27;100217.72;;;6.99;86.49
19114;BME280;9689;51.052;13.772;2022-11-15T07:09:46;100201.34;;;6.97;86.51
19114;BME280;9689;51.052;13.772;2022-11-15T07:15:07;100213.31;;;7.15;86.10
19114;BME280;9689;51.052;13.772;2022-11-15T07:20:27;100213.97;;;7.40;85.10
19114;BME280;9689;51.052;13.772;2022-11-15T07:25:46;100216.53;;;7.43;84.20
19114;BME280;9689;51.052;13.772;2022-11-15T07:31:07;100225.06;;;7.54;84.03
19114;BME280;9689;51.052;13.772;2022-11-15T07:36:28;100215.63;;;7.49;83.96
19114;BME280;9689;51.052;13.772;2022-11-15T07:41:47;100209.44;;;7.62;83.50
19114;BME280;9689;51.052;13.772;2022-11-15T07:47:07;100212.00;;;7.63;83.17
19114;BME280;9689;51.052;13.772;2022-11-15T07:52:28;100213.66;;;7.74;82.83
19114;BME280;9689;51.052;13.772;2022-11-15T07:57:47;100212.69;;;7.81;82.58
19114;BME280;9689;51.052;13.772;2022-11-15T08:03:08;100214.34;;;7.89;82.04
19114;BME280;9689;51.052;13.772;2022-11-15T08:08:29;100213.47;;;7.89;82.14
19114;BME280;9689;51.052;13.772;2022-11-15T08:13:48;100202.09;;;8.04;81.90
19114;BME280;9689;51.052;13.772;2022-11-15T08:19:08;100195.94;;;8.12;81.46
19114;BME280;9689;51.052;13.772;2022-11-15T08:24:28;100182.91;;;8.15;81.10
19114;BME280;9689;51.052;13.772;2022-11-15T08:29:48;100184.50;;;8.29;80.93
19114;BME280;9689;51.052;13.772;2022-11-15T08:35:11;100192.13;;;8.42;80.27
19114;BME280;9689;51.052;13.772;2022-11-15T08:40:32;100196.34;;;8.49;80.26
19114;BME280;9689;51.052;13.772;2022-11-15T08:45:51;100190.16;;;8.61;80.19
19114;BME280;9689;51.052;13.772;2022-11-15T08:51:10;100192.63;;;8.70;80.28
19114;BME280;9689;51.052;13.772;2022-11-15T08:56:31;100183.84;;;8.79;79.27
19114;BME280;9689;51.052;13.772;2022-11-15T09:01:50;100187.06;;;8.93;78.32
19114;BME280;9689;51.052;13.772;2022-11-15T09:07:11;100181.72;;;9.02;78.42
19114;BME280;9689;51.052;13.772;2022-11-15T09:12:32;100172.91;;;9.14;77.64
19114;BME280;9689;51.052;13.772;2022-11-15T09:17:51;100170.31;;;9.13;77.92
19114;BME280;9689;51.052;13.772;2022-11-15T09:23:10;100164.00;;;9.27;77.03
19114;BME280;9689;51.052;13.772;2022-11-15T09:28:32;100158.59;;;9.38;77.14
19114;BME280;9689;51.052;13.772;2022-11-15T09:33:52;100155.88;;;9.46;75.83
19114;BME280;9689;51.052;13.772;2022-11-15T09:39:12;100158.34;;;9.53;75.99
19114;BME280;9689;51.052;13.772;2022-11-15T09:44:41;100152.03;;;9.67;74.95
19114;BME280;9689;51.052;13.772;2022-11-15T09:50:08;100150.16;;;9.75;75.19
19114;BME280;9689;51.052;13.772;2022-11-15T09:55:12;100144.78;;;9.84;75.51
19114;BME280;9689;51.052;13.772;2022-11-15T10:00:29;100140.22;;;9.94;74.27
19114;BME280;9689;51.052;13.772;2022-11-15T10:05:49;100132.28;;;10.01;74.27
19114;BME280;9689;51.052;13.772;2022-11-15T10:10:55;100131.19;;;10.11;74.47
19114;BME280;9689;51.052;13.772;2022-11-15T10:16:35;100119.63;;;10.26;73.49
19114;BME280;9689;51.052;13.772;2022-11-15T10:21:45;100114.34;;;10.29;72.40
19114;BME280;9689;51.052;13.772;2022-11-15T10:26:52;100108.88;;;10.40;72.00
19114;BME280;9689;51.052;13.772;2022-11-15T10:31:54;100103.34;;;10.55;71.68
19114;BME280;9689;51.052;13.772;2022-11-15T10:36:56;100095.59;;;10.52;71.41
19114;BME280;9689;51.052;13.772;2022-11-15T10:41:57;100074.28;;;10.72;71.25
19114;BME280;9689;51.052;13.772;2022-11-15T10:47:20;100072.00;;;10.58;71.26
19114;BME280;9689;51.052;13.772;2022-11-15T10:52:22;100075.13;;;10.72;71.54
19114;BME280;9689;51.052;13.772;2022-11-15T10:57:25;100072.44;;;10.75;70.88
19114;BME280;9689;51.052;13.772;2022-11-15T11:02:31;100073.06;;;10.85;71.06
19114;BME280;9689;51.052;13.772;2022-11-15T11:07:33;100054.75;;;10.88;71.04
19114;BME280;9689;51.052;13.772;2022-11-15T11:12:35;100049.66;;;10.84;70.15
19114;BME280;9689;51.052;13.772;2022-11-15T11:17:49;100038.66;;;11.07;69.45
19114;BME280;9689;51.052;13.772;2022-11-15T11:23:01;100032.63;;;11.04;69.55
19114;BME280;9689;51.052;13.772;2022-11-15T11:28:21;100028.16;;;11.08;69.14
19114;BME280;9689;51.052;13.772;2022-11-15T11:33:31;100018.38;;;11.16;68.37
19114;BME280;9689;51.052;13.772;2022-11-15T11:38:49;100002.28;;;11.00;68.84
19114;BME280;9689;51.052;13.772;2022-11-15T11:44:02;100005.25;;;11.21;69.75
19114;BME280;9689;51.052;13.772;2022-11-15T11:49:10;99999.13;;;11.22;67.73
19114;BME280;9689;51.052;13.772;2022-11-15T11:54:17;100000.81;;;11.23;68.62
19114;BME280;9689;51.052;13.772;2022-11-15T11:59:25;99994.13;;;11.14;68.58
19114;BME280;9689;51.052;13.772;2022-11-15T12:04:30;99983.72;;;11.13;68.68
19114;BME280;9689;51.052;13.772;2022-11-15T12:09:34;99979.31;;;11.15;68.78
19114;BME280;9689;51.052;13.772;2022-11-15T12:14:42;99974.25;;;11.09;68.71
19114;BME280;9689;51.052;13.772;2022-11-15T12:19:45;99966.34;;;11.12;68.57
19114;BME280;9689;51.052;13.772;2022-11-15T12:24:51;99955.25;;;11.05;69.14
19114;BME280;9689;51.052;13.772;2022-11-15T12:29:56;99948.22;;;11.07;69.58
19114;BME280;9689;51.052;13.772;2022-11-15T12:35:01;99942.22;;;11.05;69.73
19114;BME280;9689;51.052;13.772;2022-11-15T12:40:29;99926.31;;;11.14;67.87
19114;BME280;9689;51.052;13.772;2022-11-15T12:45:32;99919.59;;;11.06;69.18
19114;BME280;9689;51.052;13.772;2022-11-15T12:50:55;99923.75;;;11.11;68.98
19114;BME280;9689;51.052;13.772;2022-11-15T12:56:20;99911.78;;;11.06;68.22
19114;BME280;9689;51.052;13.772;2022-11-15T13:01:58;99912.84;;;10.98;68.29
19114;BME280;9689;51.052;13.772;2022-11-15T13:07:03;99903.53;;;10.90;68.61
19114;BME280;9689;51.052;13.772;2022-11-15T13:12:08;99906.13;;;10.90;69.69
19114;BME280;9689;51.052;13.772;2022-11-15T13:17:28;99894.25;;;10.80;69.04
19114;BME280;9689;51.052;13.772;2022-11-15T13:22:40;99897.75;;;10.79;69.50
19114;BME280;9689;51.052;13.772;2022-11-15T13:28:00;99892.59;;;10.75;68.93
19114;BME280;9689;51.052;13.772;2022-11-15T13:33:10;99895.31;;;10.72;69.35
19114;BME280;9689;51.052;13.772;2022-11-15T13:38:19;99896.41;;;10.64;69.27
19114;BME280;9689;51.052;13.772;2022-11-15T13:43:35;99884.56;;;10.52;69.01
19114;BME280;9689;51.052;13.772;2022-11-15T13:48:36;99891.78;;;10.41;69.54
19114;BME280;9689;51.052;13.772;2022-11-15T13:53:41;99883.56;;;10.24;70.87
19114;BME280;9689;51.052;13.772;2022-11-15T13:58:46;99881.38;;;10.05;71.15
19114;BME280;9689;51.052;13.772;2022-11-15T14:03:50;99880.09;;;9.87;71.45
19114;BME280;9689;51.052;13.772;2022-11-15T14:09:04;99871.69;;;9.76;72.17
19114;BME280;9689;51.052;13.772;2022-11-15T14:14:15;99869.22;;;9.70;71.77
19114;BME280;9689;51.052;13.772;2022-11-15T14:19:37;99872.00;;;9.62;72.66
19114;BME280;9689;51.052;13.772;2022-11-15T14:24:41;99878.53;;;9.42;72.76
19114;BME280;9689;51.052;13.772;2022-11-15T14:29:42;99878.84;;;9.28;73.23
19114;BME280;9689;51.052;13.772;2022-11-15T14:34:43;99873.13;;;9.12;73.86
19114;BME280;9689;51.052;13.772;2022-11-15T14:39:46;99868.00;;;9.07;74.17
19114;BME280;9689;51.052;13.772;2022-11-15T14:44:47;99857.06;;;8.92;74.85
19114;BME280;9689;51.052;13.772;2022-11-15T14:49:48;99857.44;;;8.73;74.76
19114;BME280;9689;51.052;13.772;2022-11-15T14:54:50;99857.94;;;8.47;75.73
19114;BME280;9689;51.052;13.772;2022-11-15T14:59:51;99858.94;;;8.40;76.91
19114;BME280;9689;51.052;13.772;2022-11-15T15:04:53;99859.16;;;8.74;80.14
19114;BME280;9689;51.052;13.772;2022-11-15T15:09:55;99860.00;;;8.75;78.70
19114;BME280;9689;51.052;13.772;2022-11-15T15:15:18;99866.91;;;8.77;78.88
19114;BME280;9689;51.052;13.772;2022-11-15T15:20:20;99859.03;;;8.33;76.84
19114;BME280;9689;51.052;13.772;2022-11-15T15:25:24;99851.09;;;8.42;78.78
19114;BME280;9689;51.052;13.772;2022-11-15T15:30:28;99847.31;;;8.12;77.47
19114;BME280;9689;51.052;13.772;2022-11-15T15:35:32;99841.75;;;7.81;77.82
19114;BME280;9689;51.052;13.772;2022-11-15T15:40:35;99845.72;;;7.49;78.57
19114;BME280;9689;51.052;13.772;2022-11-15T15:45:37;99846.75;;;7.37;79.95
19114;BME280;9689;51.052;13.772;2022-11-15T15:50:39;99846.13;;;7.22;80.40
19114;BME280;9689;51.052;13.772;2022-11-15T15:55:43;99853.31;;;7.00;80.83
19114;BME280;9689;51.052;13.772;2022-11-15T16:00:44;99847.31;;;6.95;80.55
19114;BME280;9689;51.052;13.772;2022-11-15T16:05:45;99849.16;;;6.88;81.53
19114;BME280;9689;51.052;13.772;2022-11-15T16:10:48;99856.16;;;6.77;82.05
19114;BME280;9689;51.052;13.772;2022-11-15T16:15:52;99851.00;;;6.78;82.48
19114;BME280;9689;51.052;13.772;2022-11-15T16:20:53;99851.06;;;6.72;82.33
19114;BME280;9689;51.052;13.772;2022-11-15T16:25:57;99839.06;;;6.64;82.10
19114;BME280;9689;51.052;13.772;2022-11-15T16:31:02;99845.16;;;6.60;82.05
19114;BME280;9689;51.052;13.772;2022-11-15T16:36:05;99851.34;;;6.46;82.96
19114;BME280;9689;51.052;13.772;2022-11-15T16:41:08;99848.72;;;6.48;83.13
19114;BME280;9689;51.052;13.772;2022-11-15T16:46:14;99846.19;;;6.42;83.33
19114;BME280;9689;51.052;13.772;2022-11-15T16:51:17;99840.84;;;6.62;84.99
19114;BME280;9689;51.052;13.772;2022-11-15T16:56:23;99832.19;;;6.63;83.58
19114;BME280;9689;51.052;13.772;2022-11-15T17:01:25;99828.00;;;6.49;82.61
19114;BME280;9689;51.052;13.772;2022-11-15T17:06:27;99823.75;;;6.42;82.51
19114;BME280;9689;51.052;13.772;2022-11-15T17:11:29;99811.69;;;6.44;82.99
19114;BME280;9689;51.052;13.772;2022-11-15T17:16:30;99805.78;;;6.30;83.56
19114;BME280;9689;51.052;13.772;2022-11-15T17:21:32;99802.53;;;6.13;83.73
19114;BME280;9689;51.052;13.772;2022-11-15T17:26:35;99804.25;;;6.12;83.64
19114;BME280;9689;51.052;13.772;2022-11-15T17:31:41;99810.25;;;6.16;84.17
19114;BME280;9689;51.052;13.772;2022-11-15T17:36:43;99803.28;;;6.22;83.87
19114;BME280;9689;51.052;13.772;2022-11-15T17:41:45;99806.03;;;6.06;84.86
19114;BME280;9689;51.052;13.772;2022-11-15T17:46:46;99800.00;;;6.07;84.36
19114;BME280;9689;51.052;13.772;2022-11-15T17:51:47;99801.72;;;6.06;84.36
19114;BME280;9689;51.052;13.772;2022-11-15T17:56:50;99805.16;;;6.07;83.92
19114;BME280;9689;51.052;13.772;2022-11-15T18:01:51;99801.81;;;6.00;83.80
19114;BME280;9689;51.052;13.772;2022-11-15T18:06:52;99794.94;;;5.94;84.29
19114;BME280;9689;51.052;13.772;2022-11-15T18:11:55;99786.38;;;5.91;84.98
19114;BME280;9689;51.052;13.772;2022-11-15T18:16:57;99783.78;;;5.91;83.76
19114;BME280;9689;51.052;13.772;2022-11-15T18:21:57;99778.63;;;5.91;84.50
19114;BME280;9689;51.052;13.772;2022-11-15T18:27:02;99769.97;;;5.87;84.46
19114;BME280;9689;51.052;13.772;2022-11-15T18:32:04;99764.00;;;5.81;84.28
19114;BME280;9689;51.052;13.772;2022-11-15T18:37:10;99763.19;;;5.77;84.05
19114;BME280;9689;51.052;13.772;2022-11-15T18:42:12;99757.97;;;5.82;83.88
19114;BME280;9689;51.052;13.772;2022-11-15T18:47:13;99754.53;;;5.83;84.06
19114;BME280;9689;51.052;13.772;2022-11-15T18:52:14;99749.44;;;5.75;84.76
19114;BME280;9689;51.052;13.772;2022-11-15T18:57:16;99740.03;;;5.66;84.97
19114;BME280;9689;51.052;13.772;2022-11-15T19:02:17;99744.38;;;5.61;85.07
19114;BME280;9689;51.052;13.772;2022-11-15T19:07:18;99741.84;;;5.54;85.11
19114;BME280;9689;51.052;13.772;2022-11-15T19:12:20;99747.88;;;5.57;84.40
19114;BME280;9689;51.052;13.772;2022-11-15T19:17:21;99746.03;;;5.68;85.53
19114;BME280;9689;51.052;13.772;2022-11-15T19:22:22;99749.44;;;5.75;83.84
19114;BME280;9689;51.052;13.772;2022-11-15T19:27:25;99741.81;;;5.60;84.53
19114;BME280;9689;51.052;13.772;2022-11-15T19:32:26;99734.09;;;5.54;84.07
19114;BME280;9689;51.052;13.772;2022-11-15T19:37:27;99731.56;;;5.49;84.61
19114;BME280;9689;51.052;13.772;2022-11-15T19:42:30;99739.31;;;5.46;84.64
19114;BME280;9689;51.052;13.772;2022-11-15T19:47:30;99739.25;;;5.57;84.18
19114;BME280;9689;51.052;13.772;2022-11-15T19:52:31;99736.66;;;5.55;84.27
19114;BME280;9689;51.052;13.772;2022-11-15T19:57:33;99735.06;;;5.42;83.51
19114;BME280;9689;51.052;13.772;2022-11-15T20:02:34;99727.34;;;5.37;84.31
19114;BME280;9689;51.052;13.772;2022-11-15T20:07:35;99718.72;;;5.38;84.49
19114;BME280;9689;51.052;13.772;2022-11-15T20:12:37;99718.81;;;5.31;83.72
19114;BME280;9689;51.052;13.772;2022-11-15T20:17:38;99715.34;;;5.33;84.44
19114;BME280;9689;51.052;13.772;2022-11-15T20:22:39;99712.72;;;5.35;84.15
19114;BME280;9689;51.052;13.772;2022-11-15T20:27:41;99715.38;;;5.30;84.01
19114;BME280;9689;51.052;13.772;2022-11-15T20:32:42;99720.44;;;5.38;84.09
19114;BME280;9689;51.052;13.772;2022-11-15T20:37:44;99717.00;;;5.37;83.72
19114;BME280;9689;51.052;13.772;2022-11-15T20:42:46;99712.75;;;5.32;84.45
19114;BME280;9689;51.052;13.772;2022-11-15T20:47:47;99717.88;;;5.36;84.34
19114;BME280;9689;51.052;13.772;2022-11-15T20:52:48;99704.94;;;5.38;85.03
19114;BME280;9689;51.052;13.772;2022-11-15T20:57:50;99698.97;;;5.33;85.02
19114;BME280;9689;51.052;13.772;2022-11-15T21:02:51;99694.59;;;5.38;84.17
19114;BME280;9689;51.052;13.772;2022-11-15T21:07:52;99695.47;;;5.40;84.18
19114;BME280;9689;51.052;13.772;2022-11-15T21:12:54;99690.31;;;5.40;83.92
19114;BME280;9689;51.052;13.772;2022-11-15T21:17:55;99684.28;;;5.39;84.58
19114;BME280;9689;51.052;13.772;2022-11-15T21:22:56;99673.09;;;5.36;84.83
19114;BME280;9689;51.052;13.772;2022-11-15T21:27:58;99662.75;;;5.39;84.92
19114;BME280;9689;51.052;13.772;2022-11-15T21:32:59;99666.09;;;5.47;84.41
19114;BME280;9689;51.052;13.772;2022-11-15T21:38:00;99675.63;;;5.42;85.23
19114;BME280;9689;51.052;13.772;2022-11-15T21:43:02;99661.03;;;5.38;84.67
19114;BME280;9689;51.052;13.772;2022-11-15T21:48:03;99657.59;;;5.36;85.27
19114;BME280;9689;51.052;13.772;2022-11-15T21:53:04;99660.97;;;5.44;84.83
19114;BME280;9689;51.052;13.772;2022-11-15T21:58:06;99652.41;;;5.37;84.80
19114;BME280;9689;51.052;13.772;2022-11-15T22:03:07;99656.72;;;5.40;84.80
19114;BME280;9689;51.052;13.772;2022-11-15T22:08:08;99653.28;;;5.39;84.46
19114;BME280;9689;51.052;13.772;2022-11-15T22:13:10;99658.44;;;5.39;84.77
19114;BME280;9689;51.052;13.772;2022-11-15T22:18:11;99646.38;;;5.37;84.83
19114;BME280;9689;51.052;13.772;2022-11-15T22:23:12;99635.28;;;5.30;85.30
19114;BME280;9689;51.052;13.772;2022-11-15T22:28:14;99624.88;;;5.35;85.71
19114;BME280;9689;51.052;13.772;2022-11-15T22:33:17;99619.69;;;5.39;85.83
19114;BME280;9689;51.052;13.772;2022-11-15T22:38:18;99616.16;;;5.47;85.66
19114;BME280;9689;51.052;13.772;2022-11-15T22:43:23;99595.41;;;5.53;85.33
19114;BME280;9689;51.052;13.772;2022-11-15T22:48:25;99592.03;;;5.46;85.10
19114;BME280;9689;51.052;13.772;2022-11-15T22:53:27;99586.03;;;5.44;85.90
19114;BME280;9689;51.052;13.772;2022-11-15T22:58:30;99580.84;;;5.46;84.66
19114;BME280;9689;51.052;13.772;2022-11-15T23:03:33;99573.97;;;5.48;85.06
19114;BME280;9689;51.052;13.772;2022-11-15T23:08:34;99571.44;;;5.42;85.88
19114;BME280;9689;51.052;13.772;2022-11-15T23:13:37;99573.94;;;5.46;84.67
19114;BME280;9689;51.052;13.772;2022-11-15T23:18:39;99563.63;;;5.48;84.58
19114;BME280;9689;51.052;13.772;2022-11-15T23:23:40;99554.97;;;5.47;84.48
19114;BME280;9689;51.052;13.772;2022-11-15T23:28:43;99558.53;;;5.40;85.61
19114;BME280;9689;51.052;13.772;2022-11-15T23:33:44;99540.41;;;5.43;85.80
19114;BME280;9689;51.052;13.772;2022-11-15T23:38:57;99541.31;;;5.41;85.48
19114;BME280;9689;51.052;13.772;2022-11-15T23:43:59;99540.44;;;5.42;85.84
19114;BME280;9689;51.052;13.772;2022-11-15T23:49:00;99528.34;;;5.44;85.33
19114;BME280;9689;51.052;13.772;2022-11-15T23:54:01;99520.59;;;5.44;85.86
19114;BME280;9689;51.052;13.772;2022-11-15T23:59:03;99522.28;;;5.48;85.78
